createdAt,value
2022-08-17T00:01:52.012Z,99.90
2022-08-17T00:04:39.944Z,99.90
2022-08-17T00:07:27.378Z,99.90
2022-08-17T00:10:14.510Z,99.90
2022-08-17T00:13:14.996Z,99.90
2022-08-17T00:16:06.333Z,99.90
2022-08-17T00:19:06.183Z,99.90
2022-08-17T00:22:30.878Z,99.90
2022-08-17T00:25:12.999Z,99.90
2022-08-17T00:28:00.101Z,99.90
2022-08-17T00:33:42.872Z,99.90
2022-08-17T00:36:30.312Z,99.90
2022-08-17T00:39:17.804Z,99.90
2022-08-17T00:42:15.113Z,99.90
2022-08-17T00:45:04.330Z,99.90
2022-08-17T00:47:51.662Z,99.90
2022-08-17T00:50:44.725Z,99.90
2022-08-17T00:53:34.126Z,99.90
2022-08-17T00:56:33.109Z,99.90
2022-08-17T00:59:23.668Z,99.90
2022-08-17T01:02:14.642Z,99.90
2022-08-17T01:05:02.236Z,99.90
2022-08-17T01:07:51.147Z,99.90
2022-08-17T01:10:57.538Z,99.90
2022-08-17T01:13:48.548Z,99.90
2022-08-17T01:16:37.447Z,99.90
2022-08-17T01:19:32.657Z,99.90
2022-08-17T01:22:23.895Z,99.90
2022-08-17T01:25:13.014Z,99.90
2022-08-17T01:28:00.638Z,99.90
2022-08-17T01:30:56.923Z,99.90
2022-08-17T01:33:38.883Z,99.90
2022-08-17T01:36:26.394Z,99.90
2022-08-17T01:51:01.475Z,99.90
2022-08-17T01:53:52.687Z,99.90
2022-08-17T01:56:43.103Z,99.90
2022-08-17T01:59:32.870Z,99.90
2022-08-17T02:02:31.386Z,99.90
2022-08-17T02:05:19.443Z,99.90
2022-08-17T02:08:09.763Z,99.90
2022-08-17T02:11:16.657Z,99.90
2022-08-17T02:14:05.665Z,99.90
2022-08-17T02:16:54.270Z,99.90
2022-08-17T02:19:41.861Z,99.90
2022-08-17T02:22:29.590Z,99.90
2022-08-17T02:25:20.071Z,99.90
2022-08-17T02:28:07.487Z,99.90
2022-08-17T02:31:01.583Z,99.90
2022-08-17T02:34:00.435Z,99.90
2022-08-17T02:36:53.452Z,99.90
2022-08-17T02:39:40.996Z,99.90
2022-08-17T02:42:34.361Z,99.90
2022-08-17T02:45:24.459Z,99.90
2022-08-17T02:48:12.226Z,99.90
2022-08-17T02:51:01.130Z,99.90
2022-08-17T02:53:48.120Z,99.90
2022-08-17T02:56:35.570Z,99.90
2022-08-17T02:59:24.311Z,99.90
2022-08-17T03:02:12.795Z,99.90
2022-08-17T03:04:59.842Z,99.90
2022-08-17T03:07:47.423Z,99.90
2022-08-17T03:10:34.561Z,99.90
2022-08-17T03:13:22.247Z,99.90
2022-08-17T03:16:09.805Z,99.90
2022-08-17T03:18:57.207Z,99.90
2022-08-17T03:21:44.281Z,99.90
2022-08-17T03:24:31.918Z,99.90
2022-08-17T03:27:18.950Z,99.90
2022-08-17T03:30:09.527Z,99.90
2022-08-17T03:33:00.616Z,99.90
2022-08-17T03:35:48.479Z,99.90
2022-08-17T03:38:39.352Z,99.90
2022-08-17T03:41:26.970Z,99.90
2022-08-17T03:44:14.415Z,99.90
2022-08-17T03:47:20.304Z,99.90
2022-08-17T03:50:28.805Z,99.90
2022-08-17T03:53:36.397Z,99.90
2022-08-17T03:56:42.573Z,99.90
2022-08-17T03:59:30.383Z,99.90
2022-08-17T04:02:28.914Z,99.90
2022-08-17T04:05:16.028Z,99.90
2022-08-17T04:08:03.259Z,99.90
2022-08-17T04:10:52.787Z,99.90
2022-08-17T04:13:39.830Z,99.90
2022-08-17T04:16:26.954Z,99.90
2022-08-17T04:19:14.439Z,99.90
2022-08-17T04:22:02.020Z,99.90
2022-08-17T04:24:49.434Z,99.90
2022-08-17T04:27:36.855Z,99.90
2022-08-17T04:30:24.071Z,99.90
2022-08-17T04:33:17.207Z,99.90
2022-08-17T04:36:07.372Z,99.90
2022-08-17T04:38:54.499Z,99.90
2022-08-17T04:42:00.656Z,99.90
2022-08-17T04:44:47.675Z,99.90
2022-08-17T04:47:35.215Z,99.90
2022-08-17T04:50:22.638Z,99.90
2022-08-17T04:53:10.336Z,99.90
2022-08-17T04:55:58.961Z,99.90
2022-08-17T04:58:49.822Z,99.90
2022-08-17T05:01:39.795Z,99.90
2022-08-17T05:04:35.158Z,99.90
2022-08-17T05:07:24.612Z,99.90
2022-08-17T05:10:13.796Z,99.90
2022-08-17T05:13:10.845Z,99.90
2022-08-17T05:16:01.468Z,99.90
2022-08-17T05:18:48.847Z,99.90
2022-08-17T05:21:36.284Z,99.90
2022-08-17T05:24:40.731Z,99.90
2022-08-17T05:27:35.318Z,99.90
2022-08-17T05:30:23.815Z,99.90
2022-08-17T05:33:14.707Z,99.90
2022-08-17T05:36:04.016Z,99.90
2022-08-17T05:50:02.518Z,99.90
2022-08-17T05:53:18.015Z,99.90
2022-08-17T05:56:30.111Z,99.90
2022-08-17T06:02:33.077Z,99.90
2022-08-17T06:05:55.893Z,99.90
2022-08-17T06:09:30.151Z,99.90
2022-08-17T06:32:27.190Z,99.90
2022-08-17T06:35:18.465Z,99.90
2022-08-17T06:51:00.144Z,99.90
2022-08-17T06:54:07.685Z,99.90
2022-08-17T07:02:59.557Z,99.90
2022-08-17T07:37:19.967Z,99.90
2022-08-17T07:40:17.170Z,99.90
2022-08-17T07:43:29.576Z,99.90
2022-08-17T07:46:40.147Z,99.90
2022-08-17T07:49:38.879Z,99.90
2022-08-17T07:52:51.236Z,99.90
2022-08-17T07:55:42.175Z,99.90
2022-08-17T07:58:29.168Z,99.90
2022-08-17T08:01:18.294Z,99.90
2022-08-17T08:07:40.603Z,99.90
2022-08-17T08:10:38.463Z,99.90
2022-08-17T08:16:27.495Z,99.90
2022-08-17T08:22:22.704Z,99.90
2022-08-17T08:25:25.359Z,99.90
2022-08-17T08:28:22.257Z,99.90
2022-08-17T08:31:45.133Z,99.90
2022-08-17T08:35:01.987Z,99.90
2022-08-17T08:38:00.137Z,99.90
2022-08-17T08:40:53.368Z,99.90
2022-08-17T08:43:52.999Z,99.90
2022-08-17T08:50:30.210Z,99.90
2022-08-17T08:53:44.824Z,99.90
2022-08-17T08:56:53.791Z,99.90
2022-08-17T09:00:02.247Z,99.90
2022-08-17T09:03:03.004Z,99.90
2022-08-17T09:06:37.450Z,99.90
2022-08-17T09:09:34.727Z,99.90
2022-08-17T09:12:26.354Z,99.90
2022-08-17T09:15:34.981Z,99.90
2022-08-17T09:19:00.122Z,99.80
2022-08-17T09:21:53.432Z,99.90
2022-08-17T09:24:49.115Z,99.90
2022-08-17T09:28:09.056Z,99.90
2022-08-17T09:31:03.686Z,99.90
2022-08-17T09:33:51.466Z,98.80
2022-08-17T09:36:53.601Z,99.20
2022-08-17T09:40:11.290Z,98.30
2022-08-17T09:43:20.730Z,97.90
2022-08-17T09:46:22.235Z,98.70
2022-08-17T09:49:30.866Z,99.20
2022-08-17T09:52:25.434Z,98.30
2022-08-17T09:55:12.590Z,98.50
2022-08-17T09:58:31.449Z,96.70
2022-08-17T10:01:26.419Z,96.20
2022-08-17T10:04:29.569Z,95.90
2022-08-17T10:07:40.577Z,96.50
2022-08-17T10:10:52.388Z,96.10
2022-08-17T10:14:17.481Z,96.60
2022-08-17T10:17:35.531Z,95.70
2022-08-17T10:20:43.685Z,96.00
2022-08-17T10:23:49.847Z,95.30
2022-08-17T10:26:55.432Z,95.60
2022-08-17T10:29:49.568Z,94.70
2022-08-17T10:32:57.343Z,94.70
2022-08-17T10:36:01.703Z,94.70
2022-08-17T10:39:14.819Z,94.20
2022-08-17T10:42:41.086Z,93.80
2022-08-17T10:45:36.256Z,93.90
2022-08-17T10:48:32.219Z,94.80
2022-08-17T10:51:39.897Z,94.10
2022-08-17T10:54:46.720Z,95.20
2022-08-17T10:57:38.347Z,93.70
2022-08-17T11:00:28.139Z,93.60
2022-08-17T11:03:24.736Z,93.40
2022-08-17T11:06:23.277Z,93.70
2022-08-17T11:09:38.299Z,93.70
2022-08-17T11:13:05.766Z,92.80
2022-08-17T11:16:15.861Z,92.50
2022-08-17T11:19:21.712Z,91.80
2022-08-17T11:22:33.586Z,92.00
2022-08-17T11:25:33.170Z,91.10
2022-08-17T11:28:36.308Z,91.50
2022-08-17T11:31:37.926Z,91.20
2022-08-17T11:34:29.651Z,91.40
2022-08-17T11:37:32.453Z,90.60
2022-08-17T11:40:51.437Z,91.00
2022-08-17T11:43:45.901Z,91.10
2022-08-17T11:47:09.295Z,90.80
2022-08-17T11:50:43.675Z,91.00
2022-08-17T11:53:39.182Z,89.10
2022-08-17T11:56:35.582Z,90.10
2022-08-17T11:59:39.610Z,90.10
2022-08-17T12:02:32.959Z,90.30
2022-08-17T12:05:26.071Z,90.00
2022-08-17T12:08:19.725Z,90.10
2022-08-17T12:11:12.082Z,89.50
2022-08-17T12:14:00.514Z,90.00
2022-08-17T12:17:12.200Z,89.20
2022-08-17T12:20:28.056Z,87.10
2022-08-17T12:23:33.781Z,88.00
2022-08-17T12:26:30.831Z,86.00
2022-08-17T12:29:35.712Z,83.20
2022-08-17T12:32:31.268Z,86.40
2022-08-17T12:35:32.993Z,85.30
2022-08-17T12:38:32.702Z,87.20
2022-08-17T12:41:40.820Z,87.90
2022-08-17T12:44:34.751Z,87.60
2022-08-17T12:47:23.303Z,87.30
2022-08-17T12:50:28.308Z,85.90
2022-08-17T12:53:23.482Z,85.70
2022-08-17T12:56:13.678Z,84.60
2022-08-17T12:59:02.349Z,84.10
2022-08-17T13:01:50.739Z,84.00
2022-08-17T13:04:40.736Z,84.80
2022-08-17T13:07:35.129Z,84.90
2022-08-17T13:10:32.151Z,85.00
2022-08-17T13:13:44.873Z,84.20
2022-08-17T13:16:33.799Z,84.10
2022-08-17T13:19:39.839Z,85.30
2022-08-17T13:22:30.256Z,83.40
2022-08-17T13:25:17.741Z,82.00
2022-08-17T13:28:05.291Z,82.40
2022-08-17T13:30:52.323Z,82.40
2022-08-17T13:33:43.688Z,80.00
2022-08-17T13:36:33.577Z,82.70
2022-08-17T13:39:24.190Z,82.60
2022-08-17T13:42:50.434Z,82.00
2022-08-17T13:45:50.471Z,82.00
2022-08-17T13:48:38.599Z,81.60
2022-08-17T13:51:28.902Z,83.50
2022-08-17T13:54:31.790Z,83.40
2022-08-17T13:57:23.863Z,80.90
2022-08-17T14:00:19.267Z,84.20
2022-08-17T14:03:06.282Z,83.60
2022-08-17T14:05:53.469Z,83.30
2022-08-17T14:08:40.488Z,83.80
2022-08-17T14:11:27.558Z,83.90
2022-08-17T14:14:16.406Z,81.80
2022-08-17T14:17:03.965Z,82.10
2022-08-17T14:19:51.747Z,83.40
2022-08-17T14:22:43.215Z,83.50
2022-08-17T14:25:30.357Z,82.70
2022-08-17T14:28:17.791Z,82.60
2022-08-17T14:31:07.993Z,81.60
2022-08-17T14:33:55.336Z,81.70
2022-08-17T14:36:45.537Z,80.60
2022-08-17T14:42:25.240Z,80.60
2022-08-17T14:45:27.063Z,82.40
2022-08-17T14:48:19.325Z,80.00
2022-08-17T14:51:06.857Z,78.80
2022-08-17T14:53:54.310Z,78.10
2022-08-17T14:56:41.383Z,76.90
2022-08-17T14:59:32.692Z,78.00
2022-08-17T15:02:20.431Z,78.50
2022-08-17T15:05:08.333Z,79.70
2022-08-17T15:07:55.751Z,79.40
2022-08-17T15:10:44.834Z,77.30
2022-08-17T15:13:32.714Z,78.10
2022-08-17T15:16:20.528Z,75.90
2022-08-17T15:19:08.275Z,76.80
2022-08-17T15:21:55.278Z,76.90
2022-08-17T15:24:42.336Z,77.90
2022-08-17T15:27:32.330Z,77.80
2022-08-17T15:30:20.499Z,78.30
2022-08-17T15:33:07.485Z,77.10
2022-08-17T15:35:55.435Z,75.70
2022-08-17T15:38:44.492Z,77.30
2022-08-17T15:41:31.654Z,75.80
2022-08-17T15:44:19.254Z,75.00
2022-08-17T15:47:06.471Z,75.60
2022-08-17T15:49:57.918Z,74.80
2022-08-17T15:52:47.520Z,75.20
2022-08-17T15:55:37.006Z,76.50
2022-08-17T15:58:32.283Z,75.50
2022-08-17T16:03:01.249Z,74.60
2022-08-17T16:04:31.825Z,74.40
2022-08-17T16:07:26.635Z,77.90
2022-08-17T16:10:18.882Z,78.90
2022-08-17T16:13:17.170Z,79.10
2022-08-17T16:16:05.928Z,79.40
2022-08-17T16:18:54.773Z,84.10
2022-08-17T16:21:45.891Z,83.70
2022-08-17T16:24:34.107Z,84.30
2022-08-17T16:27:21.600Z,85.50
2022-08-17T16:30:14.939Z,85.10
2022-08-17T16:33:04.909Z,85.20
2022-08-17T16:35:51.866Z,84.70
2022-08-17T16:38:39.354Z,85.60
2022-08-17T16:41:45.695Z,85.50
2022-08-17T16:44:32.738Z,84.80
2022-08-17T16:47:20.404Z,85.70
2022-08-17T16:50:09.672Z,86.40
2022-08-17T16:53:17.533Z,86.10
2022-08-17T16:56:05.011Z,86.50
2022-08-17T16:58:53.356Z,85.10
2022-08-17T17:01:40.894Z,85.90
2022-08-17T17:04:28.492Z,86.70
2022-08-17T17:07:37.980Z,87.30
2022-08-17T17:10:33.250Z,86.40
2022-08-17T17:13:43.858Z,86.80
2022-08-17T17:16:36.816Z,86.70
2022-08-17T17:19:45.433Z,87.10
2022-08-17T17:23:04.579Z,88.20
2022-08-17T17:26:03.106Z,87.70
2022-08-17T17:29:10.742Z,86.90
2022-08-17T17:32:14.943Z,87.50
2022-08-17T17:35:16.368Z,88.80
2022-08-17T17:38:13.899Z,87.80
2022-08-17T17:41:05.916Z,88.30
2022-08-17T17:44:01.864Z,87.80
2022-08-17T17:46:54.898Z,88.90
2022-08-17T17:49:44.438Z,90.00
2022-08-17T17:52:36.698Z,92.30
2022-08-17T17:55:42.430Z,94.00
2022-08-17T17:59:05.198Z,95.00
2022-08-17T18:02:44.165Z,94.30
2022-08-17T18:05:44.511Z,94.20
2022-08-17T18:08:50.548Z,96.00
2022-08-17T18:11:53.904Z,96.60
2022-08-17T18:14:52.449Z,97.80
2022-08-17T18:17:39.480Z,97.50
2022-08-17T18:20:35.903Z,97.50
2022-08-17T18:23:35.242Z,96.60
2022-08-17T18:26:45.102Z,96.70
2022-08-17T18:29:44.196Z,96.20
2022-08-17T18:32:39.910Z,96.70
2022-08-17T18:35:31.384Z,97.50
2022-08-17T18:38:27.235Z,97.10
2022-08-17T18:41:30.653Z,96.90
2022-08-17T18:44:26.112Z,96.40
2022-08-17T18:47:22.153Z,96.70
2022-08-17T18:50:26.311Z,95.50
2022-08-17T18:53:34.287Z,96.10
2022-08-17T18:56:34.386Z,96.00
2022-08-17T18:59:33.721Z,96.10
2022-08-17T19:02:44.772Z,96.50
2022-08-17T19:05:36.866Z,95.70
2022-08-17T19:08:35.444Z,95.20
2022-08-17T19:11:30.817Z,95.20
2022-08-17T19:14:21.481Z,95.10
2022-08-17T19:17:22.027Z,95.40
2022-08-17T19:20:19.811Z,95.50
2022-08-17T19:23:11.846Z,97.10
2022-08-17T19:26:02.389Z,95.70
2022-08-17T19:29:31.572Z,96.00
2022-08-17T19:32:32.313Z,95.60
2022-08-17T19:35:22.122Z,96.10
2022-08-17T19:38:47.740Z,94.80
2022-08-17T19:41:50.668Z,94.90
2022-08-17T19:44:47.427Z,94.90
2022-08-17T19:48:05.070Z,95.00
2022-08-17T19:51:13.359Z,95.20
2022-08-17T19:54:21.391Z,95.20
2022-08-17T19:57:22.006Z,95.40
2022-08-17T20:00:13.462Z,95.50
2022-08-17T20:03:19.033Z,95.20
2022-08-17T20:06:14.171Z,95.30
2022-08-17T20:09:15.230Z,95.60
2022-08-17T20:12:23.831Z,94.80
2022-08-17T20:15:24.872Z,95.10
2022-08-17T20:18:38.754Z,95.20
2022-08-17T20:22:01.300Z,94.90
2022-08-17T20:24:51.687Z,95.00
2022-08-17T20:28:05.881Z,95.10
2022-08-17T20:30:54.858Z,95.40
2022-08-17T20:33:41.906Z,95.60
2022-08-17T20:36:31.042Z,95.40
2022-08-17T20:39:40.286Z,95.40
2022-08-17T20:42:29.174Z,95.20
2022-08-17T20:45:23.802Z,95.30
2022-08-17T20:48:36.190Z,95.40
2022-08-17T20:52:00.696Z,95.60
2022-08-17T20:54:49.316Z,95.60
2022-08-17T20:57:36.710Z,95.50
2022-08-17T21:00:29.803Z,96.00
2022-08-17T21:03:23.113Z,95.80
2022-08-17T21:06:17.642Z,95.60
2022-08-17T21:09:16.084Z,95.90
2022-08-17T21:12:05.439Z,95.70
2022-08-17T21:15:01.411Z,96.00
2022-08-17T21:18:01.115Z,96.40
2022-08-17T21:21:18.984Z,96.00
2022-08-17T21:24:19.725Z,95.90
2022-08-17T21:27:36.981Z,96.20
2022-08-17T21:30:50.985Z,95.60
2022-08-17T21:33:39.525Z,96.00
2022-08-17T21:36:27.262Z,96.00
2022-08-17T21:39:36.102Z,96.20
2022-08-17T21:42:29.522Z,96.50
2022-08-17T21:45:24.812Z,96.50
2022-08-17T21:48:31.240Z,97.70
2022-08-17T21:51:26.260Z,97.10
2022-08-17T21:54:35.995Z,97.20
2022-08-17T21:57:30.083Z,97.80
2022-08-17T22:00:27.979Z,97.60
2022-08-17T22:03:29.058Z,97.50
2022-08-17T22:06:34.726Z,97.60
2022-08-17T22:09:35.721Z,97.80
2022-08-17T22:12:24.400Z,99.10
2022-08-17T22:15:18.854Z,99.90
2022-08-17T22:18:20.053Z,99.90
2022-08-17T22:21:08.355Z,99.90
